createdAt,value
2022-11-15T00:00:28.473Z,97.86
2022-11-15T00:01:28.473Z,97.86
2022-11-15T00:02:28.479Z,97.86
2022-11-15T00:03:28.672Z,97.86
2022-11-15T00:04:31.156Z,97.86
2022-11-15T00:05:28.422Z,97.96
2022-11-15T00:06:28.393Z,97.96
2022-11-15T00:07:53.931Z,97.96
2022-11-15T00:08:29.373Z,97.96
2022-11-15T00:09:28.383Z,98.06
2022-11-15T00:10:28.345Z,98.16
2022-11-15T00:11:28.351Z,98.12
2022-11-15T00:12:28.322Z,98.22
2022-11-15T00:13:28.519Z,98.22
2022-11-15T00:14:28.316Z,98.22
2022-11-15T00:15:28.309Z,98.22
2022-11-15T00:16:28.282Z,98.22
2022-11-15T00:17:28.813Z,98.22
2022-11-15T00:18:28.265Z,98.33
2022-11-15T00:19:28.265Z,98.53
2022-11-15T00:20:28.244Z,98.69
2022-11-15T00:21:28.242Z,99.00
2022-11-15T00:22:28.215Z,99.21
2022-11-15T00:23:28.323Z,99.26
2022-11-15T00:24:28.202Z,99.57
2022-11-15T00:25:28.204Z,99.52
2022-11-15T00:26:28.172Z,99.73
2022-11-15T00:27:28.191Z,99.79
2022-11-15T00:28:28.141Z,99.89
2022-11-15T00:29:28.156Z,99.84
2022-11-15T00:30:28.136Z,99.74
2022-11-15T00:31:28.134Z,99.74
2022-11-15T00:32:28.092Z,99.63
2022-11-15T00:33:28.262Z,99.59
2022-11-15T00:34:28.082Z,99.49
2022-11-15T00:35:28.082Z,99.38
2022-11-15T00:36:28.061Z,99.28
2022-11-15T00:37:28.075Z,99.18
2022-11-15T00:38:28.032Z,99.08
2022-11-15T00:39:28.032Z,98.97
2022-11-15T00:40:28.011Z,98.87
2022-11-15T00:41:28.022Z,98.72
2022-11-15T00:42:27.992Z,98.52
2022-11-15T00:43:28.165Z,98.42
2022-11-15T00:44:27.964Z,98.32
2022-11-15T00:45:27.986Z,98.11
2022-11-15T00:46:27.951Z,98.00
2022-11-15T00:47:27.977Z,97.91
2022-11-15T00:48:27.922Z,97.70
2022-11-15T00:49:27.928Z,97.60
2022-11-15T00:50:27.898Z,97.60
2022-11-15T00:51:27.901Z,97.60
2022-11-15T00:52:27.873Z,97.60
2022-11-15T00:53:27.873Z,97.55
2022-11-15T00:54:27.861Z,97.24
2022-11-15T00:55:27.851Z,97.14
2022-11-15T00:56:27.821Z,97.04
2022-11-15T00:57:28.662Z,96.94
2022-11-15T00:58:27.921Z,96.94
2022-11-15T00:59:27.810Z,96.83
2022-11-15T01:00:27.780Z,96.83
2022-11-15T01:01:27.845Z,96.83
2022-11-15T01:02:27.770Z,96.94
2022-11-15T01:03:27.918Z,96.94
2022-11-15T01:04:27.732Z,96.94
2022-11-15T01:05:27.746Z,96.83
2022-11-15T01:06:27.710Z,96.89
2022-11-15T01:07:27.781Z,96.89
2022-11-15T01:08:27.691Z,96.79
2022-11-15T01:09:27.692Z,96.58
2022-11-15T01:10:27.660Z,96.58
2022-11-15T01:11:27.671Z,96.48
2022-11-15T01:12:27.640Z,96.48
2022-11-15T01:13:27.753Z,96.38
2022-11-15T01:14:27.628Z,96.28
2022-11-15T01:15:27.619Z,96.28
2022-11-15T01:16:27.601Z,96.28
2022-11-15T01:17:27.613Z,96.28
2022-11-15T01:18:28.439Z,96.38
2022-11-15T01:19:28.342Z,96.38
2022-11-15T01:20:27.571Z,96.38
2022-11-15T01:21:27.566Z,96.38
2022-11-15T01:22:27.530Z,96.28
2022-11-15T01:23:27.529Z,96.17
2022-11-15T01:24:27.512Z,96.17
2022-11-15T01:25:27.499Z,96.17
2022-11-15T01:26:27.484Z,96.28
2022-11-15T01:27:27.489Z,96.28
2022-11-15T01:28:27.458Z,96.28
2022-11-15T01:29:27.478Z,96.28
2022-11-15T01:30:27.440Z,96.28
2022-11-15T01:31:27.440Z,96.28
2022-11-15T01:32:27.419Z,96.38
2022-11-15T01:33:27.453Z,96.38
2022-11-15T01:34:27.399Z,96.48
2022-11-15T01:35:27.545Z,96.58
2022-11-15T01:36:27.359Z,96.69
2022-11-15T01:37:27.369Z,96.89
2022-11-15T01:38:27.660Z,96.89
2022-11-15T01:39:27.375Z,96.89
2022-11-15T01:40:27.321Z,96.99
2022-11-15T01:41:27.358Z,96.99
2022-11-15T01:42:27.298Z,97.09
2022-11-15T01:43:27.325Z,96.99
2022-11-15T01:44:27.269Z,97.09
2022-11-15T01:45:27.279Z,97.09
2022-11-15T01:46:27.308Z,97.09
2022-11-15T01:47:27.258Z,97.20
2022-11-15T01:48:27.229Z,97.30
2022-11-15T01:49:27.226Z,97.40
2022-11-15T01:50:27.210Z,97.50
2022-11-15T01:51:27.208Z,97.50
2022-11-15T01:52:27.177Z,97.50
2022-11-15T01:53:27.178Z,97.61
2022-11-15T01:54:27.157Z,97.61
2022-11-15T01:55:27.169Z,97.61
2022-11-15T01:56:27.137Z,97.61
2022-11-15T01:57:27.137Z,97.61
2022-11-15T01:58:27.109Z,97.61
2022-11-15T01:59:27.131Z,97.61
2022-11-15T02:00:27.090Z,97.61
2022-11-15T02:01:27.206Z,97.71
2022-11-15T02:02:27.068Z,97.81
2022-11-15T02:03:27.080Z,97.81
2022-11-15T02:04:27.038Z,97.86
2022-11-15T02:05:27.039Z,97.86
2022-11-15T02:06:27.027Z,97.86
2022-11-15T02:07:27.080Z,97.86
2022-11-15T02:08:27.000Z,97.86
2022-11-15T02:09:27.064Z,97.86
2022-11-15T02:10:26.967Z,97.96
2022-11-15T02:11:26.980Z,98.07
2022-11-15T02:12:26.973Z,98.07
2022-11-15T02:13:26.950Z,98.07
2022-11-15T02:14:26.927Z,98.21
2022-11-15T02:15:26.928Z,98.21
2022-11-15T02:16:26.901Z,98.21
2022-11-15T02:17:26.926Z,98.21
2022-11-15T02:18:26.877Z,98.21
2022-11-15T02:19:27.830Z,98.32
2022-11-15T02:20:27.737Z,98.32
2022-11-15T02:21:26.899Z,98.32
2022-11-15T02:22:26.847Z,98.42
2022-11-15T02:23:26.836Z,98.42
2022-11-15T02:24:26.809Z,98.52
2022-11-15T02:25:26.817Z,98.52
2022-11-15T02:26:26.787Z,98.62
2022-11-15T02:27:26.796Z,98.62
2022-11-15T02:28:26.767Z,98.83
2022-11-15T02:29:26.769Z,98.83
2022-11-15T02:30:26.989Z,98.93
2022-11-15T02:31:26.745Z,98.93
2022-11-15T02:32:26.719Z,98.93
2022-11-15T02:33:26.768Z,98.93
2022-11-15T02:34:26.697Z,98.93
2022-11-15T02:35:26.708Z,98.93
2022-11-15T02:36:26.676Z,98.93
2022-11-15T02:37:26.688Z,98.97
2022-11-15T02:38:26.657Z,98.97
2022-11-15T02:39:26.956Z,98.97
2022-11-15T02:40:26.957Z,98.97
2022-11-15T02:41:27.067Z,98.97
2022-11-15T02:42:26.595Z,99.08
2022-11-15T02:43:26.606Z,99.08
2022-11-15T02:44:26.593Z,99.18
2022-11-15T02:45:26.586Z,99.18
2022-11-15T02:46:26.559Z,99.18
2022-11-15T02:47:26.570Z,99.18
2022-11-15T02:48:26.527Z,99.28
2022-11-15T02:49:26.536Z,99.38
2022-11-15T02:50:26.516Z,99.38
2022-11-15T02:51:26.507Z,99.38
2022-11-15T02:52:26.486Z,99.49
2022-11-15T02:53:26.485Z,99.59
2022-11-15T02:54:26.475Z,99.69
2022-11-15T02:55:26.467Z,99.75
2022-11-15T02:56:26.436Z,99.75
2022-11-15T02:57:26.456Z,99.85
2022-11-15T02:58:26.426Z,99.85
2022-11-15T02:59:26.424Z,99.85
2022-11-15T03:00:26.406Z,99.95
2022-11-15T03:01:26.438Z,99.95
2022-11-15T03:02:26.378Z,99.95
2022-11-15T03:03:26.373Z,99.95
2022-11-15T03:04:26.344Z,99.95
2022-11-15T03:05:26.367Z,99.95
2022-11-15T03:06:26.325Z,99.95
2022-11-15T03:07:26.401Z,99.95
2022-11-15T03:08:26.304Z,99.85
2022-11-15T03:09:26.305Z,99.85
2022-11-15T03:10:26.406Z,99.80
2022-11-15T03:11:26.285Z,99.80
2022-11-15T03:12:26.256Z,99.75
2022-11-15T03:13:26.255Z,99.70
2022-11-15T03:14:26.236Z,99.60
2022-11-15T03:15:26.237Z,99.50
2022-11-15T03:16:26.214Z,99.50
2022-11-15T03:17:26.229Z,99.40
2022-11-15T03:18:26.354Z,99.40
2022-11-15T03:19:26.214Z,99.29
2022-11-15T03:20:26.174Z,99.19
2022-11-15T03:21:26.874Z,99.09
2022-11-15T03:22:26.194Z,98.99
2022-11-15T03:23:26.143Z,98.88
2022-11-15T03:24:26.384Z,98.78
2022-11-15T03:25:26.105Z,98.78
2022-11-15T03:26:26.113Z,98.58
2022-11-15T03:27:26.094Z,98.53
2022-11-15T03:28:26.096Z,98.33
2022-11-15T03:29:26.064Z,98.33
2022-11-15T03:30:26.064Z,98.22
2022-11-15T03:31:26.043Z,98.12
2022-11-15T03:32:26.037Z,98.02
2022-11-15T03:33:26.005Z,97.91
2022-11-15T03:34:26.016Z,97.81
2022-11-15T03:35:25.994Z,97.81
2022-11-15T03:36:25.995Z,97.71
2022-11-15T03:37:25.985Z,97.61
2022-11-15T03:38:26.056Z,97.61
2022-11-15T03:39:25.944Z,97.50
2022-11-15T03:40:25.993Z,97.50
2022-11-15T03:41:25.935Z,97.50
2022-11-15T03:42:25.933Z,97.50
2022-11-15T03:43:25.903Z,97.50
2022-11-15T03:44:25.913Z,97.50
2022-11-15T03:45:25.873Z,97.50
2022-11-15T03:46:25.874Z,97.40
2022-11-15T03:47:25.864Z,97.30
2022-11-15T03:48:25.905Z,97.30
2022-11-15T03:49:25.834Z,97.20
2022-11-15T03:50:25.837Z,97.20
2022-11-15T03:51:25.810Z,97.20
2022-11-15T03:52:25.805Z,97.20
2022-11-15T03:53:25.784Z,97.20
2022-11-15T03:54:25.810Z,97.20
2022-11-15T03:55:25.765Z,97.20
2022-11-15T03:56:25.762Z,96.99
2022-11-15T03:57:25.744Z,96.89
2022-11-15T03:58:25.737Z,96.89
2022-11-15T03:59:25.713Z,96.89
2022-11-15T04:00:25.716Z,96.79
2022-11-15T04:01:25.798Z,96.79
2022-11-15T04:02:25.695Z,96.79
2022-11-15T04:03:25.665Z,96.79
2022-11-15T04:04:25.666Z,96.69
2022-11-15T04:05:25.645Z,96.69
2022-11-15T04:06:25.644Z,96.69
2022-11-15T04:07:25.720Z,96.69
2022-11-15T04:08:25.626Z,96.69
2022-11-15T04:09:25.614Z,96.69
2022-11-15T04:10:25.614Z,96.69
2022-11-15T04:11:25.573Z,96.58
2022-11-15T04:12:25.575Z,96.58
2022-11-15T04:13:25.552Z,96.58
2022-11-15T04:14:25.554Z,96.48
2022-11-15T04:15:25.524Z,96.48
2022-11-15T04:16:25.534Z,96.38
2022-11-15T04:17:25.504Z,96.38
2022-11-15T04:18:25.517Z,96.28
2022-11-15T04:19:25.484Z,96.38
2022-11-15T04:20:25.492Z,96.38
2022-11-15T04:21:25.463Z,96.28
2022-11-15T04:22:25.464Z,96.17
2022-11-15T04:23:25.435Z,96.07
2022-11-15T04:24:25.439Z,96.07
2022-11-15T04:25:29.684Z,96.03
2022-11-15T04:26:26.414Z,95.97
2022-11-15T04:27:25.408Z,95.82
2022-11-15T04:28:25.394Z,95.82
2022-11-15T04:29:25.372Z,95.72
2022-11-15T04:30:25.364Z,95.62
2022-11-15T04:31:25.343Z,95.62
2022-11-15T04:32:25.343Z,95.62
2022-11-15T04:33:25.323Z,95.51
2022-11-15T04:34:25.332Z,95.51
2022-11-15T04:35:25.303Z,95.41
2022-11-15T04:36:25.303Z,95.41
2022-11-15T04:37:25.273Z,95.41
2022-11-15T04:38:25.283Z,95.41
2022-11-15T04:39:25.252Z,95.31
2022-11-15T04:40:25.254Z,95.31
2022-11-15T04:41:25.503Z,95.31
2022-11-15T04:42:25.258Z,95.31
2022-11-15T04:43:25.205Z,95.31
2022-11-15T04:44:25.207Z,95.31
2022-11-15T04:45:25.182Z,95.31
2022-11-15T04:46:25.182Z,95.31
2022-11-15T04:47:25.173Z,95.31
2022-11-15T04:48:25.161Z,95.31
2022-11-15T04:49:25.132Z,95.31
2022-11-15T04:50:25.147Z,95.31
2022-11-15T04:51:25.123Z,95.31
2022-11-15T04:52:25.124Z,95.41
2022-11-15T04:53:25.092Z,95.41
2022-11-15T04:54:25.093Z,95.41
2022-11-15T04:55:25.064Z,95.51
2022-11-15T04:56:25.067Z,95.51
2022-11-15T04:57:25.052Z,95.51
2022-11-15T04:58:25.053Z,95.51
2022-11-15T04:59:25.028Z,95.51
2022-11-15T05:00:25.011Z,95.51
2022-11-15T05:01:25.021Z,95.51
2022-11-15T05:02:25.004Z,95.51
2022-11-15T05:03:24.982Z,95.41
2022-11-15T05:04:24.980Z,95.41
2022-11-15T05:05:24.953Z,95.41
2022-11-15T05:06:24.951Z,95.41
2022-11-15T05:07:25.045Z,95.31
2022-11-15T05:08:24.931Z,95.31
2022-11-15T05:09:24.916Z,95.21
2022-11-15T05:10:24.915Z,95.31
2022-11-15T05:11:24.882Z,95.31
2022-11-15T05:12:24.881Z,95.31
2022-11-15T05:13:24.901Z,95.31
2022-11-15T05:14:24.863Z,95.31
2022-11-15T05:15:24.830Z,95.31
2022-11-15T05:16:24.833Z,95.21
2022-11-15T05:17:24.810Z,95.10
2022-11-15T05:18:24.812Z,95.10
2022-11-15T05:19:25.060Z,95.10
2022-11-15T05:20:24.814Z,95.00
2022-11-15T05:21:24.780Z,94.90
2022-11-15T05:22:24.761Z,94.90
2022-11-15T05:23:24.750Z,95.00
2022-11-15T05:24:24.761Z,95.00
2022-11-15T05:25:24.725Z,95.00
2022-11-15T05:26:24.725Z,95.10
2022-11-15T05:27:24.690Z,95.10
2022-11-15T05:28:24.690Z,95.10
2022-11-15T05:29:25.584Z,95.10
2022-11-15T05:30:24.679Z,95.00
2022-11-15T05:31:24.685Z,94.90
2022-11-15T05:32:24.652Z,94.90
2022-11-15T05:33:24.620Z,94.90
2022-11-15T05:34:24.630Z,94.90
2022-11-15T05:35:24.611Z,94.90
2022-11-15T05:36:24.599Z,94.90
2022-11-15T05:37:24.580Z,94.80
2022-11-15T05:38:24.596Z,94.80
2022-11-15T05:39:24.559Z,94.80
2022-11-15T05:40:24.560Z,94.80
2022-11-15T05:41:24.539Z,94.80
2022-11-15T05:42:24.540Z,94.70
2022-11-15T05:43:24.509Z,94.70
2022-11-15T05:44:24.521Z,94.70
2022-11-15T05:45:27.072Z,94.70
2022-11-15T05:46:24.500Z,94.59
2022-11-15T05:47:24.460Z,94.59
2022-11-15T05:48:24.473Z,94.59
2022-11-15T05:49:24.440Z,94.70
2022-11-15T05:50:24.448Z,94.70
2022-11-15T05:51:24.421Z,94.70
2022-11-15T05:52:24.430Z,94.70
2022-11-15T05:53:24.391Z,94.49
2022-11-15T05:54:24.412Z,94.39
2022-11-15T05:55:24.389Z,94.49
2022-11-15T05:56:24.400Z,94.29
2022-11-15T05:57:24.362Z,94.18
2022-11-15T05:58:24.368Z,94.08
2022-11-15T05:59:24.343Z,93.98
2022-11-15T06:00:24.330Z,93.98
2022-11-15T06:01:24.316Z,93.98
2022-11-15T06:02:24.393Z,93.88
2022-11-15T06:03:24.299Z,93.77
2022-11-15T06:04:24.550Z,93.67
2022-11-15T06:05:24.259Z,93.67
2022-11-15T06:06:33.533Z,93.57
2022-11-15T06:07:24.290Z,93.26
2022-11-15T06:08:24.241Z,93.06
2022-11-15T06:09:24.212Z,92.96
2022-11-15T06:10:24.217Z,92.85
2022-11-15T06:11:24.221Z,92.44
2022-11-15T06:12:24.193Z,92.24
2022-11-15T06:13:24.171Z,91.93
2022-11-15T06:14:24.181Z,91.93
2022-11-15T06:15:24.143Z,91.78
2022-11-15T06:16:24.144Z,91.69
2022-11-15T06:17:24.327Z,91.48
2022-11-15T06:18:24.122Z,91.38
2022-11-15T06:19:24.154Z,91.38
2022-11-15T06:20:24.115Z,91.17
2022-11-15T06:21:24.072Z,90.86
2022-11-15T06:22:24.092Z,90.77
2022-11-15T06:23:26.255Z,90.86
2022-11-15T06:24:24.800Z,90.56
2022-11-15T06:25:24.953Z,90.36
2022-11-15T06:26:24.056Z,90.25
2022-11-15T06:27:24.028Z,90.25
2022-11-15T06:28:24.024Z,90.25
2022-11-15T06:29:23.985Z,90.30
2022-11-15T06:30:23.982Z,90.09
2022-11-15T06:31:23.973Z,90.09
2022-11-15T06:32:23.971Z,90.09
2022-11-15T06:33:23.963Z,90.09
2022-11-15T06:34:23.968Z,89.98
2022-11-15T06:35:23.962Z,89.58
2022-11-15T06:36:23.940Z,89.47
2022-11-15T06:37:23.893Z,89.37
2022-11-15T06:38:23.905Z,89.37
2022-11-15T06:39:23.883Z,89.58
2022-11-15T06:40:23.872Z,89.27
2022-11-15T06:41:23.850Z,89.27
2022-11-15T06:42:23.851Z,89.27
2022-11-15T06:43:23.880Z,89.37
2022-11-15T06:44:23.844Z,89.37
2022-11-15T06:45:23.953Z,89.37
2022-11-15T06:46:23.812Z,89.27
2022-11-15T06:47:23.784Z,89.27
2022-11-15T06:48:23.792Z,89.37
2022-11-15T06:49:23.784Z,89.27
2022-11-15T06:50:23.760Z,89.06
2022-11-15T06:51:23.731Z,89.06
2022-11-15T06:52:23.822Z,89.06
2022-11-15T06:53:23.700Z,88.96
2022-11-15T06:54:23.723Z,88.96
2022-11-15T06:55:23.694Z,89.06
2022-11-15T06:56:23.691Z,89.06
2022-11-15T06:57:23.665Z,88.96
2022-11-15T06:58:23.693Z,88.82
2022-11-15T06:59:23.658Z,88.96
2022-11-15T07:00:23.961Z,88.86
2022-11-15T07:01:23.664Z,88.86
2022-11-15T07:02:23.621Z,88.96
2022-11-15T07:03:23.592Z,89.06
2022-11-15T07:04:23.699Z,89.17
2022-11-15T07:05:23.607Z,88.86
2022-11-15T07:06:23.614Z,88.86
2022-11-15T07:07:23.601Z,88.86
2022-11-15T07:08:23.553Z,88.76
2022-11-15T07:09:23.582Z,88.76
2022-11-15T07:10:23.561Z,88.65
2022-11-15T07:11:23.515Z,88.65
2022-11-15T07:12:23.533Z,88.65
2022-11-15T07:13:23.495Z,88.76
2022-11-15T07:14:23.644Z,88.56
2022-11-15T07:15:23.491Z,88.45
2022-11-15T07:16:23.478Z,88.65
2022-11-15T07:17:23.439Z,88.71
2022-11-15T07:18:23.438Z,88.71
2022-11-15T07:19:23.416Z,88.41
2022-11-15T07:20:23.471Z,88.31
2022-11-15T07:21:27.420Z,88.41
2022-11-15T07:22:23.410Z,88.51
2022-11-15T07:23:23.364Z,88.51
2022-11-15T07:24:23.387Z,88.51
2022-11-15T07:25:24.311Z,88.10
2022-11-15T07:26:24.096Z,88.20
2022-11-15T07:27:23.375Z,88.31
2022-11-15T07:28:23.341Z,88.20
2022-11-15T07:29:24.180Z,88.00
2022-11-15T07:30:24.100Z,87.70
2022-11-15T07:31:23.314Z,87.79
2022-11-15T07:32:23.319Z,87.90
2022-11-15T07:33:23.313Z,87.90
2022-11-15T07:34:24.218Z,87.79
2022-11-15T07:35:24.120Z,87.79
2022-11-15T07:36:24.022Z,87.59
2022-11-15T07:37:24.065Z,87.59
2022-11-15T07:38:23.967Z,87.38
2022-11-15T07:39:23.234Z,87.49
2022-11-15T07:40:23.410Z,87.38
2022-11-15T07:41:23.745Z,87.49
2022-11-15T07:42:23.209Z,87.70
2022-11-15T07:43:23.320Z,87.38
2022-11-15T07:44:23.131Z,87.49
2022-11-15T07:45:23.124Z,87.29
2022-11-15T07:46:23.131Z,87.18
2022-11-15T07:47:23.878Z,87.18
2022-11-15T07:48:23.100Z,87.18
2022-11-15T07:49:23.100Z,86.83
2022-11-15T07:50:23.062Z,86.73
2022-11-15T07:51:23.050Z,86.63
2022-11-15T07:52:23.042Z,86.63
2022-11-15T07:53:23.111Z,86.94
2022-11-15T07:54:23.062Z,87.04
2022-11-15T07:55:23.038Z,86.73
2022-11-15T07:56:23.118Z,86.32
2022-11-15T07:57:22.988Z,86.32
2022-11-15T07:58:23.121Z,86.38
2022-11-15T07:59:23.040Z,86.38
2022-11-15T08:00:22.979Z,86.38
2022-11-15T08:01:23.046Z,85.97
2022-11-15T08:02:27.633Z,85.77
2022-11-15T08:03:23.956Z,85.57
2022-11-15T08:04:22.919Z,85.26
2022-11-15T08:05:22.899Z,85.47
2022-11-15T08:06:22.969Z,85.47
2022-11-15T08:07:23.077Z,85.77
2022-11-15T08:08:22.863Z,85.67
2022-11-15T08:09:22.876Z,85.26
2022-11-15T08:10:22.830Z,84.95
2022-11-15T08:11:22.827Z,85.06
2022-11-15T08:12:22.905Z,85.47
2022-11-15T08:13:22.839Z,85.57
2022-11-15T08:14:22.791Z,85.67
2022-11-15T08:15:22.801Z,85.77
2022-11-15T08:16:22.776Z,85.71
2022-11-15T08:17:22.758Z,85.71
2022-11-15T08:18:22.740Z,85.71
2022-11-15T08:19:22.739Z,85.81
2022-11-15T08:20:23.217Z,85.91
2022-11-15T08:21:22.730Z,86.02
2022-11-15T08:22:22.689Z,86.02
2022-11-15T08:23:22.701Z,86.02
2022-11-15T08:24:22.665Z,86.12
2022-11-15T08:25:22.931Z,86.12
2022-11-15T08:26:22.655Z,86.43
2022-11-15T08:27:22.798Z,86.43
2022-11-15T08:28:23.011Z,86.53
2022-11-15T08:29:22.629Z,86.32
2022-11-15T08:30:22.647Z,86.12
2022-11-15T08:31:23.133Z,85.97
2022-11-15T08:32:22.581Z,85.67
2022-11-15T08:33:22.609Z,85.77
2022-11-15T08:34:22.552Z,85.57
2022-11-15T08:35:26.286Z,85.36
2022-11-15T08:36:23.558Z,85.22
2022-11-15T08:37:22.538Z,85.22
2022-11-15T08:38:22.508Z,85.22
2022-11-15T08:39:22.521Z,84.98
2022-11-15T08:40:22.479Z,84.77
2022-11-15T08:41:22.509Z,84.42
2022-11-15T08:42:22.551Z,83.40
2022-11-15T08:43:22.468Z,82.89
2022-11-15T08:44:22.439Z,82.89
2022-11-15T08:45:22.443Z,82.86
2022-11-15T08:46:22.436Z,82.14
2022-11-15T08:47:23.236Z,82.24
2022-11-15T08:48:22.641Z,82.45
2022-11-15T08:49:22.438Z,81.94
2022-11-15T08:50:22.383Z,81.94
2022-11-15T08:51:22.384Z,81.84
2022-11-15T08:52:22.363Z,81.63
2022-11-15T08:53:22.361Z,81.53
2022-11-15T08:54:22.341Z,81.43
2022-11-15T08:55:24.857Z,81.73
2022-11-15T08:56:22.308Z,81.32
2022-11-15T08:57:22.366Z,81.12
2022-11-15T08:58:22.294Z,81.23
2022-11-15T08:59:22.301Z,81.23
2022-11-15T09:00:22.409Z,81.12
2022-11-15T09:01:22.313Z,81.02
2022-11-15T09:02:22.239Z,81.12
2022-11-15T09:03:22.276Z,81.32
2022-11-15T09:04:22.230Z,80.91
2022-11-15T09:05:22.233Z,81.02
2022-11-15T09:06:22.203Z,80.71
2022-11-15T09:07:22.264Z,80.82
2022-11-15T09:09:23.197Z,80.68
2022-11-15T09:10:22.188Z,80.27
2022-11-15T09:11:22.212Z,80.27
2022-11-15T09:12:22.149Z,80.27
2022-11-15T09:13:22.162Z,80.07
2022-11-15T09:14:22.180Z,79.55
2022-11-15T09:15:22.212Z,79.96
2022-11-15T09:16:22.087Z,80.16
2022-11-15T09:17:25.055Z,79.35
2022-11-15T09:18:22.479Z,79.41
2022-11-15T09:19:22.080Z,79.21
2022-11-15T09:20:22.063Z,78.80
2022-11-15T09:21:22.059Z,78.70
2022-11-15T09:22:22.038Z,78.09
2022-11-15T09:23:22.030Z,77.95
2022-11-15T09:24:22.019Z,78.16
2022-11-15T09:25:22.019Z,78.05
2022-11-15T09:26:21.998Z,77.55
2022-11-15T09:27:21.987Z,77.95
2022-11-15T09:28:21.973Z,77.14
2022-11-15T09:29:21.991Z,77.24
2022-11-15T09:30:22.020Z,77.14
2022-11-15T09:31:22.451Z,77.00
2022-11-15T09:32:21.932Z,76.12
2022-11-15T09:33:21.915Z,76.32
2022-11-15T09:34:21.902Z,76.90
2022-11-15T09:35:21.904Z,75.78
2022-11-15T09:36:21.872Z,75.67
2022-11-15T09:37:21.889Z,76.22
2022-11-15T09:38:21.861Z,76.32
2022-11-15T09:39:21.854Z,75.81
2022-11-15T09:40:21.875Z,75.71
2022-11-15T09:41:21.871Z,76.53
2022-11-15T09:42:21.810Z,76.53
2022-11-15T09:43:21.808Z,76.73
2022-11-15T09:44:25.499Z,77.03
2022-11-15T09:45:21.787Z,76.83
2022-11-15T09:46:21.760Z,76.25
2022-11-15T09:47:21.760Z,76.56
2022-11-15T09:48:21.760Z,77.17
2022-11-15T09:49:22.031Z,76.87
2022-11-15T09:50:22.036Z,77.58
2022-11-15T09:51:21.752Z,77.17
2022-11-15T09:52:21.728Z,76.97
2022-11-15T09:53:41.520Z,77.27
2022-11-15T09:55:22.668Z,78.09
2022-11-15T09:56:21.640Z,77.21
2022-11-15T09:57:21.659Z,77.48
2022-11-15T09:58:21.643Z,77.68
2022-11-15T09:59:21.643Z,77.75
2022-11-15T10:00:45.176Z,77.24
2022-11-15T10:01:22.666Z,76.73
2022-11-15T10:02:21.615Z,76.32
2022-11-15T10:03:21.600Z,76.42
2022-11-15T10:04:21.560Z,76.18
2022-11-15T10:05:21.574Z,75.37
2022-11-15T10:06:21.538Z,75.27
2022-11-15T10:07:21.627Z,74.96
2022-11-15T10:08:21.510Z,75.06
2022-11-15T10:09:23.951Z,75.27
2022-11-15T10:10:21.516Z,75.78
2022-11-15T10:11:38.613Z,75.27
2022-11-15T10:12:22.480Z,75.51
2022-11-15T10:13:21.477Z,75.81
2022-11-15T10:14:21.458Z,75.81
2022-11-15T10:15:21.490Z,76.15
2022-11-15T10:16:21.428Z,76.25
2022-11-15T10:17:21.428Z,76.25
2022-11-15T10:18:21.398Z,76.56
2022-11-15T10:19:21.411Z,76.05
2022-11-15T10:20:21.395Z,76.19
2022-11-15T10:21:21.389Z,76.59
2022-11-15T10:22:21.382Z,76.50
2022-11-15T10:23:21.360Z,76.15
2022-11-15T10:24:21.348Z,75.64
2022-11-15T10:25:21.347Z,75.95
2022-11-15T10:26:21.318Z,75.85
2022-11-15T10:27:21.322Z,75.44
2022-11-15T10:28:21.287Z,74.52
2022-11-15T10:29:26.438Z,74.38
2022-11-15T10:30:23.071Z,72.92
2022-11-15T10:31:21.516Z,72.78
2022-11-15T10:32:21.281Z,72.04
2022-11-15T10:33:21.279Z,71.73
2022-11-15T10:34:21.233Z,70.99
2022-11-15T10:35:21.227Z,71.19
2022-11-15T10:36:21.230Z,70.07
2022-11-15T10:37:21.244Z,70.35
2022-11-15T10:38:21.179Z,68.62
2022-11-15T10:39:21.186Z,69.26
2022-11-15T10:40:21.160Z,69.57
2022-11-15T10:41:21.183Z,69.36
2022-11-15T10:42:21.138Z,69.46
2022-11-15T10:43:21.144Z,69.16
2022-11-15T10:44:21.120Z,69.13
2022-11-15T10:45:21.254Z,68.82
2022-11-15T10:46:45.115Z,68.32
2022-11-15T10:47:22.099Z,68.92
2022-11-15T10:48:21.092Z,68.32
2022-11-15T10:49:21.081Z,68.38
2022-11-15T10:50:21.310Z,67.88
2022-11-15T10:51:21.417Z,67.88
2022-11-15T10:52:21.068Z,68.21
2022-11-15T10:53:21.027Z,68.21
2022-11-15T10:54:21.239Z,68.41
2022-11-15T10:55:20.998Z,68.62
2022-11-15T10:56:21.102Z,68.72
2022-11-15T10:57:20.973Z,68.52
2022-11-15T10:58:20.966Z,67.88
2022-11-15T10:59:20.962Z,67.06
2022-11-15T11:00:20.929Z,66.63
2022-11-15T11:01:21.141Z,66.32
2022-11-15T11:02:20.913Z,65.94
2022-11-15T11:03:20.909Z,66.46
2022-11-15T11:04:20.877Z,66.08
2022-11-15T11:05:20.908Z,67.02
2022-11-15T11:06:20.860Z,67.53
2022-11-15T11:07:20.922Z,67.83
2022-11-15T11:08:20.830Z,68.44
2022-11-15T11:09:20.891Z,69.06
2022-11-15T11:10:51.134Z,69.16
2022-11-15T11:11:21.823Z,69.77
2022-11-15T11:12:20.798Z,69.36
2022-11-15T11:13:20.810Z,69.64
2022-11-15T11:14:20.860Z,69.84
2022-11-15T11:15:20.771Z,69.30
2022-11-15T11:16:20.755Z,68.59
2022-11-15T11:17:20.748Z,67.88
2022-11-15T11:18:20.749Z,67.54
2022-11-15T11:19:20.754Z,67.44
2022-11-15T11:20:20.700Z,67.24
2022-11-15T11:21:22.647Z,66.42
2022-11-15T11:22:20.691Z,67.54
2022-11-15T11:23:20.670Z,66.52
2022-11-15T11:24:20.648Z,65.61
2022-11-15T11:25:20.698Z,65.61
2022-11-15T11:26:20.633Z,65.81
2022-11-15T11:27:20.618Z,65.81
2022-11-15T11:28:20.589Z,65.61
2022-11-15T11:29:20.597Z,65.41
2022-11-15T11:30:20.638Z,66.12
2022-11-15T11:31:20.601Z,65.41
2022-11-15T11:32:21.187Z,65.10
2022-11-15T11:33:20.546Z,65.20
2022-11-15T11:34:20.530Z,65.81
2022-11-15T11:35:20.543Z,66.02
2022-11-15T11:36:20.507Z,65.91
2022-11-15T11:37:20.511Z,65.51
2022-11-15T11:38:20.509Z,65.71
2022-11-15T11:39:20.483Z,65.41
2022-11-15T11:40:20.457Z,65.20
2022-11-15T11:41:20.481Z,65.07
2022-11-15T11:42:20.467Z,65.17
2022-11-15T11:43:20.442Z,63.95
2022-11-15T11:44:20.475Z,64.06
2022-11-15T11:45:20.417Z,62.94
2022-11-15T11:46:21.119Z,62.87
2022-11-15T11:47:20.389Z,63.88
2022-11-15T11:48:20.377Z,63.30
2022-11-15T11:49:20.382Z,64.35
2022-11-15T11:50:20.358Z,64.76
2022-11-15T11:51:20.330Z,65.26
2022-11-15T11:52:20.874Z,65.19
2022-11-15T11:53:20.346Z,65.33
2022-11-15T11:54:20.340Z,65.63
2022-11-15T11:55:20.288Z,66.27
2022-11-15T11:56:20.288Z,66.99
2022-11-15T11:57:20.471Z,67.69
2022-11-15T11:58:20.300Z,68.21
2022-11-15T11:59:20.437Z,68.54
2022-11-15T12:00:20.231Z,68.04
2022-11-15T12:01:20.198Z,68.54
2022-11-15T12:02:20.323Z,68.95
2022-11-15T12:03:20.222Z,69.06
2022-11-15T12:04:20.194Z,68.95
2022-11-15T12:05:20.327Z,68.95
2022-11-15T12:06:20.168Z,68.95
2022-11-15T12:07:20.174Z,69.23
2022-11-15T12:08:20.132Z,69.63
2022-11-15T12:09:20.141Z,68.82
2022-11-15T12:10:20.130Z,68.31
2022-11-15T12:11:20.087Z,68.01
2022-11-15T12:12:21.037Z,68.10
2022-11-15T12:13:20.254Z,68.71
2022-11-15T12:14:20.098Z,67.69
2022-11-15T12:15:20.067Z,67.60
2022-11-15T12:16:20.068Z,67.60
2022-11-15T12:17:20.039Z,67.60
2022-11-15T12:18:20.026Z,66.99
2022-11-15T12:19:20.007Z,66.88
2022-11-15T12:20:20.128Z,68.10
2022-11-15T12:21:23.980Z,67.80
2022-11-15T12:22:21.123Z,67.29
2022-11-15T12:23:20.685Z,67.57
2022-11-15T12:24:19.947Z,67.36
2022-11-15T12:25:19.928Z,66.55
2022-11-15T12:26:19.971Z,66.96
2022-11-15T12:27:26.078Z,66.52
2022-11-15T12:28:20.940Z,66.21
2022-11-15T12:29:19.881Z,66.41
2022-11-15T12:30:19.904Z,65.36
2022-11-15T12:31:19.962Z,65.67
2022-11-15T12:32:20.052Z,65.88
2022-11-15T12:33:20.044Z,66.08
2022-11-15T12:34:19.894Z,65.88
2022-11-15T12:35:19.859Z,65.97
2022-11-15T12:36:19.835Z,65.57
2022-11-15T12:37:19.818Z,65.67
2022-11-15T12:38:20.088Z,65.26
2022-11-15T12:39:19.779Z,66.08
2022-11-15T12:40:19.775Z,65.77
2022-11-15T12:41:19.789Z,65.57
2022-11-15T12:42:19.769Z,65.77
2022-11-15T12:43:19.719Z,66.38
2022-11-15T12:44:19.759Z,66.08
2022-11-15T12:45:19.698Z,65.88
2022-11-15T12:46:19.978Z,65.88
2022-11-15T12:47:23.175Z,66.38
2022-11-15T12:48:19.679Z,65.97
2022-11-15T12:49:19.684Z,66.28
2022-11-15T12:50:19.689Z,66.08
2022-11-15T12:51:19.659Z,65.97
2022-11-15T12:52:19.705Z,66.58
2022-11-15T12:53:19.791Z,66.79
2022-11-15T12:54:19.889Z,66.58